Time;durP1;ratioP1;P1;durP2;ratioP2;P2;SDS_P1;SDS_P2;PMS_P1;PMS_P2;Temp;Humidity;BMP_temperature;BMP_pressure;BME280_temperature;BME280_humidity;BME280_pressure;Samples;Min_cycle;Max_cycle;Signal;HPM_P1;HPM_P2
2023/04/27 00:01:54;;;;;;;1999.90;999.90;;;;;;;6.82;100.00;95308.16;5009421;28;20274;-62
2023/04/27 00:04:19;;;;;;;1999.90;999.90;;;;;;;6.81;100.00;95305.81;5009370;28;20221;-62
2023/04/27 00:06:44;;;;;;;1999.90;999.90;;;;;;;6.77;100.00;95302.31;5009449;28;20218;-63
2023/04/27 00:09:10;;;;;;;1999.90;999.90;;;;;;;6.75;100.00;95291.06;5009767;28;20198;-62
2023/04/27 00:11:36;;;;;;;1999.90;999.90;;;;;;;6.74;100.00;95289.53;5009778;28;20199;-63
2023/04/27 00:14:02;;;;;;;1999.90;999.90;;;;;;;6.68;100.00;95285.59;5009215;28;20209;-62
2023/04/27 00:16:27;;;;;;;1999.90;999.90;;;;;;;6.67;100.00;95284.81;5009653;28;20210;-62
2023/04/27 00:18:52;;;;;;;1999.90;999.90;;;;;;;6.67;100.00;95286.78;5008976;28;20203;-63
2023/04/27 00:21:18;;;;;;;1999.90;999.90;;;;;;;6.61;100.00;95285.56;5009590;28;20258;-63
2023/04/27 00:23:43;;;;;;;1999.90;999.90;;;;;;;6.63;100.00;95277.84;5009332;28;20244;-62
2023/04/27 00:26:09;;;;;;;1999.90;999.90;;;;;;;6.66;100.00;95279.78;5009444;28;20203;-62
2023/04/27 00:28:34;;;;;;;1999.90;999.90;;;;;;;6.69;100.00;95279.00;5008811;28;20200;-62
2023/04/27 00:31:02;;;;;;;1999.90;999.90;;;;;;;6.73;100.00;95271.66;5008941;28;20252;-63
2023/04/27 00:33:27;;;;;;;1999.90;999.90;;;;;;;6.75;100.00;95263.94;5008716;28;20199;-63
2023/04/27 00:35:53;;;;;;;1999.90;999.90;;;;;;;6.78;100.00;95263.19;5008516;28;20269;-63
2023/04/27 00:38:18;;;;;;;1999.90;999.90;;;;;;;6.83;100.00;95262.81;5008818;28;20199;-63
2023/04/27 00:40:44;;;;;;;1999.90;999.90;;;;;;;6.80;100.00;95266.28;5008723;28;20206;-63
2023/04/27 00:43:09;;;;;;;1999.90;999.90;;;;;;;6.73;100.00;95255.38;5008702;28;20219;-63
2023/04/27 00:45:41;;;;;;;1999.90;999.90;;;;;;;6.77;100.00;95258.88;5008812;28;20253;-62
2023/04/27 00:48:07;;;;;;;1999.90;999.90;;;;;;;6.70;100.00;95256.16;5008418;28;20203;-63
2023/04/27 00:50:33;;;;;;;1999.90;999.90;;;;;;;6.69;100.00;95254.59;5009098;28;20190;-63
2023/04/27 00:53:00;;;;;;;1999.90;999.90;;;;;;;6.74;100.00;95256.97;5009011;28;20201;-63
2023/04/27 00:55:26;;;;;;;1999.90;999.90;;;;;;;6.74;100.00;95251.53;5008795;28;20212;-63
2023/04/27 00:57:51;;;;;;;1999.90;999.90;;;;;;;6.75;100.00;95256.56;5008668;28;20202;-63
2023/04/27 01:00:17;;;;;;;1999.90;999.90;;;;;;;6.76;100.00;95244.56;5008846;28;20198;-63
2023/04/27 01:02:42;;;;;;;1999.90;999.90;;;;;;;6.77;100.00;95248.81;5008326;28;20241;-62
2023/04/27 01:05:08;;;;;;;1999.90;999.90;;;;;;;6.80;100.00;95241.84;5008371;28;20197;-63
2023/04/27 01:07:40;;;;;;;1999.90;999.90;;;;;;;6.84;100.00;95240.72;5008286;28;20226;-63
2023/04/27 01:10:07;;;;;;;1999.90;999.90;;;;;;;6.85;100.00;95247.69;5008186;28;20194;-64
2023/04/27 01:12:32;;;;;;;1999.90;999.90;;;;;;;6.84;100.00;95250.78;5007944;28;20190;-63
2023/04/27 01:14:58;;;;;;;1999.90;999.90;;;;;;;6.87;100.00;95244.59;5008278;28;20190;-62
2023/04/27 01:17:24;;;;;;;1999.90;999.90;;;;;;;6.87;100.00;95252.72;5008521;28;20237;-63
2023/04/27 01:19:50;;;;;;;1999.90;999.90;;;;;;;6.87;100.00;95244.59;5008491;28;20186;-64
2023/04/27 01:22:16;;;;;;;1999.90;999.90;;;;;;;6.87;100.00;95241.88;5008317;28;20222;-63
2023/04/27 01:24:41;;;;;;;1999.90;999.90;;;;;;;6.85;100.00;95241.50;5008455;28;20266;-63
2023/04/27 01:27:07;;;;;;;1999.90;999.90;;;;;;;6.88;100.00;95240.72;5008022;28;20195;-62
2023/04/27 01:29:32;;;;;;;1999.90;999.90;;;;;;;6.90;100.00;95235.69;5007959;28;20202;-63
2023/04/27 01:31:58;;;;;;;1999.90;999.90;;;;;;;6.89;100.00;95234.13;5008019;28;20210;-63
2023/04/27 01:34:23;;;;;;;1999.90;999.90;;;;;;;6.93;100.00;95234.94;5007844;28;20206;-63
2023/04/27 01:36:48;;;;;;;1999.90;999.90;;;;;;;6.91;100.00;95234.53;5007778;28;20230;-63
2023/04/27 01:39:14;;;;;;;1999.90;999.90;;;;;;;6.89;100.00;95234.13;5008282;28;20241;-63
2023/04/27 01:41:39;;;;;;;1999.90;999.90;;;;;;;6.89;100.00;95231.44;5007976;28;20258;-62
2023/04/27 01:44:05;;;;;;;1999.90;999.90;;;;;;;6.91;100.00;95231.81;5008107;28;20290;-63
2023/04/27 01:46:31;;;;;;;1999.90;999.90;;;;;;;6.91;100.00;95223.66;5006998;28;20207;-63
2023/04/27 01:48:56;;;;;;;1999.90;999.90;;;;;;;6.91;100.00;95223.66;5007568;28;20202;-63
2023/04/27 01:51:21;;;;;;;1999.90;999.90;;;;;;;6.86;100.00;95230.22;5008187;28;20228;-63
2023/04/27 01:53:47;;;;;;;1999.90;999.90;;;;;;;6.88;100.00;95232.56;5008027;28;20206;-62
2023/04/27 01:56:12;;;;;;;1999.90;999.90;;;;;;;6.91;100.00;95222.91;5008184;28;20202;-63
2023/04/27 01:58:37;;;;;;;1999.90;999.90;;;;;;;6.90;100.00;95232.97;5007717;28;20287;-63
2023/04/27 02:01:03;;;;;;;1999.90;999.90;;;;;;;6.89;100.00;95236.84;5007670;28;20233;-62
2023/04/27 02:03:28;;;;;;;1999.90;999.90;;;;;;;6.88;100.00;95230.63;5007558;28;20218;-63
2023/04/27 02:05:53;;;;;;;1999.90;999.90;;;;;;;6.88;100.00;95224.44;5007734;28;20235;-63
2023/04/27 02:08:19;;;;;;;1999.90;999.90;;;;;;;6.86;100.00;95222.09;5007699;28;20199;-63
2023/04/27 02:10:44;;;;;;;1999.90;999.90;;;;;;;6.84;100.00;95212.78;5007600;28;20195;-63
2023/04/27 02:13:09;;;;;;;1999.90;999.90;;;;;;;6.79;100.00;95221.31;5007477;28;20202;-63
2023/04/27 02:15:35;;;;;;;1999.90;999.90;;;;;;;6.68;100.00;95213.16;5007575;28;20194;-63
2023/04/27 02:18:02;;;;;;;1999.90;999.90;;;;;;;6.63;100.00;95210.03;5008044;28;20199;-63
2023/04/27 02:20:32;;;;;;;1999.90;999.90;;;;;;;6.59;100.00;95211.91;5007782;28;20217;-63
2023/04/27 02:22:57;;;;;;;1999.90;999.90;;;;;;;6.49;100.00;95202.59;5007826;28;20206;-62
2023/04/27 02:25:22;;;;;;;1999.90;999.90;;;;;;;6.41;100.00;95195.59;5007312;28;20252;-62
2023/04/27 02:27:48;;;;;;;1999.90;999.90;;;;;;;6.32;100.00;95197.09;5007109;28;20202;-63
2023/04/27 02:30:14;;;;;;;1999.90;999.90;;;;;;;6.24;100.00;95192.81;5007287;28;20199;-63
2023/04/27 02:32:40;;;;;;;1999.90;999.90;;;;;;;6.23;100.00;95193.97;5007302;28;20241;-63
2023/04/27 02:35:06;;;;;;;1999.90;999.90;;;;;;;6.17;100.00;95181.91;5007454;28;20198;-63
2023/04/27 02:37:32;;;;;;;1999.90;999.90;;;;;;;6.11;100.00;95175.28;5007210;28;20285;-63
2023/04/27 02:39:58;;;;;;;1999.90;999.90;;;;;;;6.04;100.00;95175.25;5007273;28;20222;-63
2023/04/27 02:42:23;;;;;;;1999.90;999.90;;;;;;;5.99;100.00;95173.69;5007169;28;20198;-63
2023/04/27 02:44:49;;;;;;;1999.90;999.90;;;;;;;5.96;100.00;95165.53;5007027;28;20206;-62
2023/04/27 02:47:14;;;;;;;1999.90;999.90;;;;;;;5.96;100.00;95160.13;5007259;28;20214;-63
2023/04/27 02:49:40;;;;;;;1999.90;999.90;;;;;;;5.96;100.00;95146.56;5006702;28;20248;-63
2023/04/27 02:52:05;;;;;;;1999.90;999.90;;;;;;;5.95;100.00;95140.41;5007329;28;20166;-63
2023/04/27 02:54:31;;;;;;;1999.90;999.90;;;;;;;5.91;100.00;95133.41;5007417;28;20281;-62
2023/04/27 02:56:57;;;;;;;1999.90;999.90;;;;;;;5.88;100.00;95124.09;5006924;28;20202;-64
2023/04/27 02:59:22;;;;;;;1999.90;999.90;;;;;;;5.87;100.00;95116.34;5010013;28;20200;-63
2023/04/27 03:01:47;;;;;;;1999.90;999.90;;;;;;;5.84;100.00;95112.47;5010646;28;20213;-63
2023/04/27 03:04:13;;;;;;;1999.90;999.90;;;;;;;5.77;100.00;95101.56;5010438;28;20213;-64
2023/04/27 03:06:43;;;;;;;1999.90;999.90;;;;;;;5.76;100.00;95082.97;5011045;28;20289;-63
2023/04/27 03:09:11;;;;;;;1999.90;999.90;;;;;;;5.75;100.00;95076.78;5010669;28;20190;-63
2023/04/27 03:11:37;;;;;;;1999.90;999.90;;;;;;;5.73;100.00;95059.34;5010322;28;20189;-63
2023/04/27 03:14:03;;;;;;;1999.90;999.90;;;;;;;5.74;100.00;95055.47;5010399;28;20201;-63
2023/04/27 03:16:31;;;;;;;1999.90;999.90;;;;;;;5.69;100.00;95045.03;5010487;28;20266;-63
2023/04/27 03:18:56;;;;;;;1999.90;999.90;;;;;;;5.67;100.00;95039.19;5010204;28;20191;-63
2023/04/27 03:21:21;;;;;;;1999.90;999.90;;;;;;;5.66;100.00;95033.03;5010796;28;20169;-63
2023/04/27 03:23:46;;;;;;;1999.90;999.90;;;;;;;5.68;100.00;95027.22;5010609;28;20212;-64
2023/04/27 03:26:13;;;;;;;1999.90;999.90;;;;;;;5.65;100.00;95019.84;5010084;28;20236;-64
2023/04/27 03:28:39;;;;;;;1999.90;999.90;;;;;;;5.64;100.00;95018.28;5010169;28;20243;-63
2023/04/27 03:31:14;;;;;;;1999.90;999.90;;;;;;;5.66;100.00;95014.06;5010167;28;20190;-63
2023/04/27 03:33:40;;;;;;;1999.90;999.90;;;;;;;5.66;100.00;95002.44;5010497;28;20204;-63
2023/04/27 03:36:06;;;;;;;1999.90;999.90;;;;;;;5.66;100.00;94991.59;5010349;28;20376;-63
2023/04/27 03:38:34;;;;;;;1999.90;999.90;;;;;;;5.70;100.00;94981.56;5009959;28;20189;-65
2023/04/27 03:40:59;;;;;;;1999.90;999.90;;;;;;;5.74;100.00;94983.13;5009856;28;20194;-63
2023/04/27 03:43:25;;;;;;;1999.90;999.90;;;;;;;5.85;100.00;94978.56;5009991;28;20240;-63
2023/04/27 03:45:51;;;;;;;1999.90;999.90;;;;;;;5.92;100.00;94973.16;5009643;28;20232;-63
2023/04/27 03:48:17;;;;;;;1999.90;999.90;;;;;;;5.93;100.00;94971.19;5009779;28;20181;-63
2023/04/27 03:50:43;;;;;;;1999.90;999.90;;;;;;;5.96;100.00;94973.94;5009998;28;20197;-66
2023/04/27 03:53:08;;;;;;;1999.90;999.90;;;;;;;5.95;100.00;94972.41;5009553;28;20194;-63
2023/04/27 03:55:40;;;;;;;1999.90;999.90;;;;;;;5.98;100.00;94977.03;5009415;28;20204;-63
2023/04/27 03:58:05;;;;;;;1999.90;999.90;;;;;;;6.01;100.00;94975.50;5009478;28;20186;-63
2023/04/27 04:00:32;;;;;;;1999.90;999.90;;;;;;;6.07;100.00;94979.38;5009536;28;20194;-63
2023/04/27 04:02:57;;;;;;;1999.90;999.90;;;;;;;6.10;100.00;94986.72;5009301;28;20202;-63
2023/04/27 04:05:23;;;;;;;1999.90;999.90;;;;;;;6.14;100.00;94999.16;5009401;28;20197;-63
2023/04/27 04:07:48;;;;;;;1999.90;999.90;;;;;;;6.18;100.00;94999.13;5009323;28;20189;-63
2023/04/27 04:10:13;;;;;;;1999.90;999.90;;;;;;;6.23;100.00;94999.53;5008914;28;20225;-64
2023/04/27 04:12:39;;;;;;;1999.90;999.90;;;;;;;6.27;100.00;95015.81;5009427;28;20225;-64
2023/04/27 04:15:06;;;;;;;1999.90;999.90;;;;;;;6.30;100.00;95012.31;5009242;28;20186;-65
2023/04/27 04:17:32;;;;;;;1999.90;999.90;;;;;;;6.37;100.00;95015.81;5009093;28;20186;-64
2023/04/27 04:20:01;;;;;;;1999.90;999.90;;;;;;;6.43;100.00;95029.78;5009638;28;20247;-63
2023/04/27 04:22:26;;;;;;;1999.90;999.90;;;;;;;6.54;100.00;95027.84;5008915;28;20202;-63
2023/04/27 04:24:52;;;;;;;1999.90;999.90;;;;;;;6.60;100.00;95039.88;5009090;28;20274;-63
2023/04/27 04:27:18;;;;;;;1999.90;999.90;;;;;;;6.75;100.00;95046.88;5008986;28;20221;-63
2023/04/27 04:29:43;;;;;;;1999.90;999.90;;;;;;;6.81;100.00;95056.16;5009176;28;20205;-65
2023/04/27 04:32:08;;;;;;;1999.90;999.90;;;;;;;6.91;100.00;95071.69;5009134;28;20202;-63
2023/04/27 04:34:35;;;;;;;1999.90;999.90;;;;;;;7.20;100.00;95073.22;5009016;28;20421;-64
2023/04/27 04:37:00;;;;;;;1999.90;999.90;;;;;;;7.39;100.00;95099.97;5008919;28;20211;-63
2023/04/27 04:39:30;;;;;;;1999.90;999.90;;;;;;;7.43;100.00;95138.78;5009251;28;20194;-63
2023/04/27 04:41:55;;;;;;;1999.90;999.90;;;;;;;7.40;100.00;95174.09;5008683;28;20197;-63
2023/04/27 04:44:21;;;;;;;1999.90;999.90;;;;;;;7.24;100.00;95192.72;5008576;28;20214;-64
2023/04/27 04:46:46;;;;;;;1999.90;999.90;;;;;;;7.22;100.00;95209.41;5008491;28;20254;-63
2023/04/27 04:49:11;;;;;;;1999.90;999.90;;;;;;;7.18;100.00;95211.34;5009039;28;20199;-63
2023/04/27 04:51:41;;;;;;;1999.90;999.90;;;;;;;7.14;100.00;95229.53;5008886;28;20191;-63
2023/04/27 04:54:06;;;;;;;1999.90;999.90;;;;;;;7.10;100.00;95226.03;5008739;28;20191;-62
2023/04/27 04:56:31;;;;;;;1999.90;999.90;;;;;;;7.07;100.00;95232.25;5008662;28;20198;-63
2023/04/27 04:58:57;;;;;;;1999.90;999.90;;;;;;;7.00;100.00;95237.66;5008317;28;20293;-63
2023/04/27 05:01:22;;;;;;;1999.90;999.90;;;;;;;7.03;100.00;95236.88;5008659;28;20198;-63
2023/04/27 05:03:47;;;;;;;1999.90;999.90;;;;;;;7.00;100.00;95237.66;5008661;28;20252;-63
2023/04/27 05:06:13;;;;;;;1999.90;999.90;;;;;;;7.00;100.00;95237.66;5008707;28;20186;-62
2023/04/27 05:08:39;;;;;;;1999.90;999.90;;;;;;;7.10;100.00;95242.31;5008316;28;20215;-62
2023/04/27 05:11:04;;;;;;;1999.90;999.90;;;;;;;7.18;100.00;95230.34;5008086;28;20183;-61
2023/04/27 05:13:30;;;;;;;1999.90;999.90;;;;;;;7.28;100.00;95237.72;5008137;28;20190;-61
2023/04/27 05:15:55;;;;;;;1999.90;999.90;;;;;;;7.30;100.00;95251.69;5008180;28;20179;-62
2023/04/27 05:18:20;;;;;;;1999.90;999.90;;;;;;;7.44;100.00;95242.78;5008589;28;20179;-62
2023/04/27 05:20:46;;;;;;;1999.90;999.90;;;;;;;7.50;100.00;95252.88;5008129;28;20190;-61
2023/04/27 05:23:11;;;;;;;1999.90;999.90;;;;;;;7.47;100.00;95250.91;5007539;28;20204;-63
2023/04/27 05:25:40;;;;;;;1999.90;999.90;;;;;;;7.58;100.00;95257.16;5008008;28;20191;-61
2023/04/27 05:28:07;;;;;;;1999.90;999.90;;;;;;;7.75;100.00;95255.63;5008322;28;20195;-61
2023/04/27 05:30:32;;;;;;;1999.90;999.90;;;;;;;7.86;100.00;95254.44;5008330;28;20198;-61
2023/04/27 05:32:58;;;;;;;1999.90;999.90;;;;;;;7.97;100.00;95263.38;5007901;28;20190;-65
2023/04/27 05:35:23;;;;;;;1999.90;999.90;;;;;;;8.10;100.00;95272.69;5008167;28;20190;-62
2023/04/27 05:37:48;;;;;;;1999.90;999.90;;;;;;;8.21;100.00;95272.69;5007790;28;20183;-63
2023/04/27 05:40:14;;;;;;;1999.90;999.90;;;;;;;8.29;100.00;95296.78;5007850;28;20190;-65
2023/04/27 05:42:39;;;;;;;1999.90;999.90;;;;;;;8.50;100.00;95307.66;5007297;28;20183;-64
2023/04/27 05:45:05;;;;;;;1999.90;999.90;;;;;;;8.66;100.00;95316.16;5007496;28;20201;-64
2023/04/27 05:47:31;;;;;;;1999.90;999.90;;;;;;;8.77;100.00;95338.69;5007834;28;20191;-64
2023/04/27 05:49:56;;;;;;;1999.90;999.90;;;;;;;8.90;100.00;95361.63;5007616;28;20202;-64
2023/04/27 05:52:28;;;;;;;1999.90;999.90;;;;;;;8.92;100.00;95378.31;5007716;28;20183;-65
2023/04/27 05:54:53;;;;;;;1999.90;999.90;;;;;;;8.81;100.00;95383.03;5007934;28;20245;-64
2023/04/27 05:57:19;;;;;;;1999.90;999.90;;;;;;;8.89;100.00;95384.56;5007700;28;20189;-63
2023/04/27 05:59:44;;;;;;;1999.90;999.90;;;;;;;9.02;100.00;95388.44;5007402;28;20196;-65
2023/04/27 06:02:09;;;;;;;1999.90;999.90;;;;;;;9.14;100.00;95385.28;5007382;28;20202;-64
2023/04/27 06:04:36;;;;;;;1999.90;999.90;;;;;;;9.18;100.00;95391.50;5007457;28;20211;-65
2023/04/27 06:07:06;;;;;;;1999.90;999.90;;;;;;;9.33;100.00;95398.44;5007088;28;20201;-66
2023/04/27 06:09:31;;;;;;;1999.90;999.90;;;;;;;9.56;100.00;95401.47;5007534;28;20191;-64
2023/04/27 06:11:58;;;;;;;1999.90;999.90;;;;;;;9.72;100.00;95401.78;5007772;28;20259;-65
2023/04/27 06:14:23;;;;;;;1999.90;999.90;;;;;;;9.71;100.00;95405.69;5007217;28;20273;-65
2023/04/27 06:16:49;;;;;;;1999.90;999.90;;;;;;;9.68;100.00;95409.22;5007693;28;20180;-65
2023/04/27 06:19:14;;;;;;;1999.90;999.90;;;;;;;9.65;100.00;95410.00;5007883;28;20211;-65
2023/04/27 06:21:39;;;;;;;1999.90;999.90;;;;;;;9.72;100.00;95420.88;5007743;28;20228;-65
2023/04/27 06:24:05;;;;;;;1999.90;999.90;;;;;;;9.76;100.00;95418.91;5007799;28;20291;-65
2023/04/27 06:26:30;;;;;;;1999.90;999.90;;;;;;;9.86;100.00;95418.09;5007203;28;20208;-65
2023/04/27 06:28:56;;;;;;;1999.90;999.90;;;;;;;9.99;100.00;95423.88;5007244;28;20298;-66
2023/04/27 06:31:21;;;;;;;1999.90;999.90;;;;;;;10.14;100.00;95434.31;5007208;28;20198;-66
2023/04/27 06:33:47;;;;;;;1999.90;999.90;;;;;;;10.21;100.00;95430.78;5009048;28;20214;-65
2023/04/27 06:36:12;;;;;;;1999.90;999.90;;;;;;;10.31;100.00;95429.94;5010926;28;20198;-65
2023/04/27 06:38:37;;;;;;;1999.90;999.90;;;;;;;10.53;100.00;95447.72;5011239;28;20199;-66
2023/04/27 06:41:03;;;;;;;1999.90;999.90;;;;;;;10.77;100.00;95438.56;5011021;28;20200;-65
2023/04/27 06:43:29;;;;;;;1999.90;999.90;;;;;;;10.83;100.00;95438.91;5010947;28;20218;-65
2023/04/27 06:45:54;;;;;;;1999.90;999.90;;;;;;;11.03;100.00;95437.16;5010514;28;20257;-66
2023/04/27 06:48:20;;;;;;;1999.90;999.90;;;;;;;11.05;100.00;95441.03;5011361;28;20236;-65
2023/04/27 06:50:46;;;;;;;1999.90;999.90;;;;;;;11.15;100.00;95450.31;5011231;28;20277;-69
2023/04/27 06:53:11;;;;;;;1999.90;999.90;;;;;;;11.24;100.00;95454.13;5010500;28;20194;-66
2023/04/27 06:55:37;;;;;;;1999.90;999.90;;;;;;;11.31;100.00;95453.28;5010530;28;20202;-66
2023/04/27 06:58:03;;;;;;;1999.90;999.90;;;;;;;11.48;100.00;95455.81;5010625;28;20205;-66
2023/04/27 07:00:28;;;;;;;1999.90;999.90;;;;;;;11.53;100.00;95454.59;5010237;28;20282;-66
2023/04/27 07:02:54;;;;;;;1999.90;999.90;;;;;;;11.58;100.00;95454.94;5010658;28;20219;-65
2023/04/27 07:05:19;;;;;;;1999.90;999.90;;;;;;;11.49;100.00;95453.88;5010876;28;20222;-65
2023/04/27 07:07:45;;;;;;;1999.90;999.90;;;;;;;11.70;100.00;95459.13;5010600;28;20198;-66
2023/04/27 07:10:10;;;;;;;1999.90;999.90;;;;;;;11.94;100.00;95458.06;5010354;28;20203;-64
2023/04/27 07:12:37;;;;;;;1999.90;999.90;;;;;;;11.99;100.00;95461.09;5010291;28;20245;-65
2023/04/27 07:15:05;;;;;;;1999.90;999.90;;;;;;;11.96;100.00;95466.63;5010599;28;20198;-63
2023/04/27 07:17:30;;;;;;;1999.90;999.90;;;;;;;11.87;100.00;95460.91;5010198;28;20254;-65
2023/04/27 07:19:56;;;;;;;1999.90;999.90;;;;;;;12.00;100.00;95459.16;5010619;28;20195;-69
2023/04/27 07:22:21;;;;;;;1999.90;999.90;;;;;;;12.01;100.00;95472.44;5010758;28;20203;-65
2023/04/27 07:24:46;;;;;;;1999.90;999.90;;;;;;;11.99;100.00;95465.81;5010373;28;20214;-66
2023/04/27 07:27:13;;;;;;;1999.90;999.90;;;;;;;11.89;100.00;95472.19;5010431;28;20199;-64
2023/04/27 07:29:39;;;;;;;1999.90;999.90;;;;;;;11.93;100.00;95467.47;5010080;28;20232;-64
2023/04/27 07:32:06;;;;;;;1999.90;999.90;;;;;;;12.41;100.00;95463.28;5009958;28;20209;-64
2023/04/27 07:34:31;;;;;;;1999.90;999.90;;;;;;;12.63;100.00;95466.50;5009922;28;20203;-64
2023/04/27 07:36:57;;;;;;;1999.90;999.90;;;;;;;12.64;100.00;95479.03;5009925;28;20274;-64
2023/04/27 07:39:22;;;;;;;1999.90;999.90;;;;;;;12.64;100.00;95471.56;5009785;28;20195;-65
2023/04/27 07:41:48;;;;;;;1999.90;999.90;;;;;;;12.75;100.00;95466.69;5009861;28;20230;-64
2023/04/27 07:44:16;;;;;;;1999.90;999.90;;;;;;;13.37;100.00;95466.09;5009439;28;20215;-64
2023/04/27 07:46:41;;;;;;;1999.90;999.90;;;;;;;13.69;100.00;95468.25;5009644;28;20266;-64
2023/04/27 07:49:06;;;;;;;1999.90;999.90;;;;;;;14.11;100.00;95465.44;5009310;28;20214;-65
2023/04/27 07:51:33;;;;;;;1999.90;999.90;;;;;;;14.34;100.00;95468.13;5009902;28;20261;-66
2023/04/27 07:53:58;;;;;;;1999.90;999.90;;;;;;;14.18;100.00;95476.28;5010148;28;20266;-66
2023/04/27 07:56:24;;;;;;;1999.90;999.90;;;;;;;14.29;100.00;95471.38;5009946;28;20203;-65
2023/04/27 07:58:49;;;;;;;1999.90;999.90;;;;;;;14.17;100.00;95473.97;5009609;28;20201;-67
2023/04/27 08:01:15;;;;;;;1999.90;999.90;;;;;;;14.43;100.00;95476.56;5009700;28;20194;-67
2023/04/27 08:03:40;;;;;;;1999.90;999.90;;;;;;;14.33;100.00;95477.56;5009424;28;20207;-65
2023/04/27 08:06:06;;;;;;;1999.90;999.90;;;;;;;14.08;100.00;95477.28;5009616;28;20269;-64
2023/04/27 08:08:31;;;;;;;1999.90;999.90;;;;;;;13.90;100.00;95479.59;5009356;28;20237;-65
2023/04/27 08:10:56;;;;;;;1999.90;999.90;;;;;;;13.72;100.00;95479.16;5009522;28;20199;-64
2023/04/27 08:13:22;;;;;;;1999.90;999.90;;;;;;;13.97;100.00;95484.94;5009321;28;20229;-65
2023/04/27 08:15:47;;;;;;;1999.90;999.90;;;;;;;14.37;100.00;95483.75;5009264;28;20197;-66
2023/04/27 08:18:12;;;;;;;1999.90;999.90;;;;;;;14.86;100.00;95482.63;5009081;28;20199;-65
2023/04/27 08:20:38;;;;;;;1999.90;999.90;;;;;;;15.22;100.00;95483.34;5009450;28;20189;-65
2023/04/27 08:23:03;;;;;;;1999.90;999.90;;;;;;;15.10;100.00;95489.53;5009263;28;20213;-64
2023/04/27 08:25:28;;;;;;;1999.90;999.90;;;;;;;15.69;100.00;95490.03;5009272;28;20202;-64
2023/04/27 08:27:54;;;;;;;1999.90;999.90;;;;;;;15.88;100.00;95478.09;5009548;28;20226;-65
2023/04/27 08:30:20;;;;;;;1999.90;999.90;;;;;;;15.97;100.00;95489.28;5009759;28;20191;-63
2023/04/27 08:32:46;;;;;;;1999.90;999.90;;;;;;;16.28;100.00;95482.09;5009358;28;20199;-63
2023/04/27 08:35:13;;;;;;;1999.90;999.90;;;;;;;16.46;100.00;95487.09;5009296;28;20201;-65
2023/04/27 08:37:38;;;;;;;1999.90;999.90;;;;;;;16.08;100.00;95484.25;5008614;28;20218;-64
2023/04/27 08:40:06;;;;;;;1999.90;999.90;;;;;;;16.49;100.00;95488.22;5008984;28;20266;-64
2023/04/27 08:42:31;;;;;;;1999.90;999.90;;;;;;;17.04;100.00;95487.72;5008855;28;20203;-66
2023/04/27 08:44:57;;;;;;;1999.90;999.90;;;;;;;17.46;100.00;95483.59;5009019;28;20286;-66
2023/04/27 08:47:22;;;;;;;1999.90;999.90;;;;;;;17.08;100.00;95489.13;5009151;28;20199;-65
2023/04/27 08:49:47;;;;;;;1999.90;999.90;;;;;;;17.20;100.00;95487.59;5008957;28;20241;-68
2023/04/27 08:52:14;;;;;;;1999.90;999.90;;;;;;;17.42;100.00;95485.69;5009262;28;20183;-65
2023/04/27 08:54:40;;;;;;;1999.90;999.90;;;;;;;17.60;100.00;95486.66;5008796;28;20207;-66
2023/04/27 08:57:13;;;;;;;1999.90;999.90;;;;;;;17.66;100.00;95484.13;5008656;28;20223;-66
2023/04/27 08:59:44;;;;;;;1999.90;999.90;;;;;;;18.57;100.00;95483.56;5008711;28;20199;-65
2023/04/27 09:02:19;;;;;;;1999.90;999.90;;;;;;;18.77;100.00;95486.78;5008745;28;20202;-65
2023/04/27 09:04:44;;;;;;;1999.90;999.90;;;;;;;19.35;99.33;95473.81;5008646;28;20215;-65
2023/04/27 09:07:14;;;;;;;1999.90;999.90;;;;;;;20.00;93.18;95474.22;5008965;28;20234;-65
2023/04/27 09:09:40;;;;;;;1999.90;999.90;;;;;;;20.64;87.50;95467.38;5008287;28;20206;-64
2023/04/27 09:12:26;;;;;;;1999.90;999.90;;;;;;;20.64;87.50;95467.38;5008738;28;20187;-65
2023/04/27 09:15:05;;;;;;;1999.90;999.90;;;;;;;20.59;75.52;95472.78;5008413;28;20343;-65
2023/04/27 09:17:30;;;;;;;1999.90;999.90;;;;;;;20.11;77.28;95471.78;5008647;28;20313;-65
2023/04/27 09:20:07;;;;;;;1999.90;999.90;;;;;;;20.14;80.79;95468.06;5007977;28;20213;-66
2023/04/27 09:22:41;;;;;;;1999.90;999.90;;;;;;;21.12;72.91;95468.34;5008248;28;20187;-66
2023/04/27 09:25:07;;;;;;;1999.90;999.90;;;;;;;22.14;73.26;95466.75;5008026;28;20197;-66
2023/04/27 09:27:32;;;;;;;1999.90;999.90;;;;;;;22.14;73.26;95466.75;5007935;28;20273;-66
2023/04/27 09:29:57;;;;;;;1999.90;999.90;;;;;;;22.89;64.01;95472.72;5008115;28;20187;-65
2023/04/27 09:32:23;;;;;;;1999.90;999.90;;;;;;;22.15;59.05;95482.22;5008100;28;20202;-66
2023/04/27 09:34:48;;;;;;;1999.90;999.90;;;;;;;22.15;58.54;95471.09;5007776;28;20191;-67
2023/04/27 09:37:14;;;;;;;1999.90;999.90;;;;;;;22.39;55.40;95469.81;5008288;28;20235;-67
2023/04/27 09:39:41;;;;;;;1999.90;999.90;;;;;;;22.77;55.00;95462.66;5008195;28;20223;-64
2023/04/27 09:42:07;;;;;;;1999.90;999.90;;;;;;;22.01;54.83;95461.47;5008059;28;20199;-65
2023/04/27 09:44:33;;;;;;;1999.90;999.90;;;;;;;20.84;56.20;95464.84;5008033;28;20218;-65
2023/04/27 09:46:59;;;;;;;1999.90;999.90;;;;;;;22.43;53.93;95464.81;5007849;28;20210;-65
2023/04/27 09:49:27;;;;;;;1999.90;999.90;;;;;;;22.77;51.08;95454.28;5007828;28;20195;-66
2023/04/27 09:51:54;;;;;;;1999.90;999.90;;;;;;;21.86;53.93;95448.78;5007742;28;20266;-66
2023/04/27 09:54:23;;;;;;;1999.90;999.90;;;;;;;21.89;55.39;95448.56;5008055;28;20273;-65
2023/04/27 09:56:59;;;;;;;1999.90;999.90;;;;;;;21.76;57.13;95455.63;5007777;28;20270;-65
2023/04/27 09:59:39;;;;;;;1999.90;999.90;;;;;;;22.00;53.79;95453.59;5007686;28;20203;-65
2023/04/27 10:02:06;;;;;;;1999.90;999.90;;;;;;;22.33;52.59;95457.03;5008050;28;20198;-64
2023/04/27 10:05:10;;;;;;;1999.90;999.90;;;;;;;21.63;60.37;95446.72;5008235;28;20249;-70
2023/04/27 10:07:38;;;;;;;1999.90;999.90;;;;;;;21.63;58.74;95436.38;4948484;29;20201;-69
2023/04/27 10:10:04;;;;;;;1999.90;999.90;;;;;;;21.91;60.95;95446.09;4952711;29;20193;-68
2023/04/27 10:12:36;;;;;;;1999.90;999.90;;;;;;;21.80;61.34;95440.31;4981221;28;20253;-70
2023/04/27 10:15:16;;;;;;;1999.90;999.90;;;;;;;21.28;58.56;95434.59;5011417;28;20214;-63
2023/04/27 10:17:49;;;;;;;1999.90;999.90;;;;;;;20.85;58.45;95430.28;5011862;28;20182;-70
2023/04/27 10:20:16;;;;;;;1999.90;999.90;;;;;;;20.74;65.12;95427.25;5011785;28;20274;-73
2023/04/27 10:22:45;;;;;;;1999.90;999.90;;;;;;;20.36;64.94;95429.81;5011939;28;20290;-68
2023/04/27 10:25:45;;;;;;;1999.90;999.90;;;;;;;19.38;68.33;95428.56;5011315;28;20200;-67
2023/04/27 10:28:16;;;;;;;1999.90;999.90;;;;;;;19.92;69.71;95428.59;5011667;28;20194;-67
2023/04/27 10:30:47;;;;;;;1999.90;999.90;;;;;;;19.76;69.17;95423.38;5011725;28;20199;-66
2023/04/27 10:33:22;;;;;;;1999.90;999.90;;;;;;;19.48;68.26;95432.88;5011354;28;20206;-67
2023/04/27 10:35:56;;;;;;;1999.90;999.90;;;;;;;19.39;68.39;95435.66;5011412;28;20179;-67
2023/04/27 10:38:27;;;;;;;1999.90;999.90;;;;;;;18.87;70.72;95431.00;5011476;28;20194;-67
2023/04/27 10:41:00;;;;;;;1999.90;999.90;;;;;;;18.96;70.01;95433.03;5011668;28;20271;-66
2023/04/27 10:43:27;;;;;;;1999.90;999.90;;;;;;;19.09;71.96;95428.16;5011194;28;20249;-67
2023/04/27 10:45:53;;;;;;;1999.90;999.90;;;;;;;19.02;74.75;95422.91;5010992;28;20195;-67
2023/04/27 10:48:19;;;;;;;1999.90;999.90;;;;;;;19.21;76.53;95424.50;5011101;28;20195;-67
2023/04/27 10:50:45;;;;;;;1999.90;999.90;;;;;;;19.32;72.12;95424.88;5010759;28;20221;-68